createdAt,value
2023-01-30T00:00:22.985Z,12.20
2023-01-30T00:03:15.781Z,6.05
2023-01-30T00:05:48.537Z,10.95
2023-01-30T00:08:22.101Z,10.00
2023-01-30T00:10:56.615Z,13.50
2023-01-30T00:13:29.538Z,5.90
2023-01-30T00:16:02.159Z,9.82
2023-01-30T00:18:35.092Z,9.20
2023-01-30T00:21:08.848Z,9.80
2023-01-30T00:23:42.171Z,7.43
2023-01-30T00:26:14.921Z,9.07
2023-01-30T00:28:48.659Z,12.50
2023-01-30T00:31:21.214Z,110.32
2023-01-30T00:33:56.333Z,45.33
2023-01-30T00:36:29.425Z,15.82
2023-01-30T00:39:04.664Z,17.20
2023-01-30T00:41:57.019Z,20.55
2023-01-30T00:44:48.649Z,21.13
2023-01-30T00:47:21.943Z,13.57
2023-01-30T00:49:54.987Z,13.10
2023-01-30T00:52:27.681Z,16.80
2023-01-30T00:55:00.524Z,25.95
2023-01-30T00:57:33.096Z,29.20
2023-01-30T01:00:06.457Z,40.30
2023-01-30T01:02:39.053Z,35.75
2023-01-30T01:05:12.648Z,29.80
2023-01-30T01:07:45.132Z,24.23
2023-01-30T01:10:18.285Z,34.88
2023-01-30T01:12:52.717Z,35.63
2023-01-30T01:15:29.348Z,22.30
2023-01-30T01:18:01.889Z,35.35
2023-01-30T01:20:35.288Z,36.35
2023-01-30T01:23:10.550Z,22.52
2023-01-30T01:25:43.482Z,22.40
2023-01-30T01:28:16.249Z,19.52
2023-01-30T01:30:50.690Z,26.92
2023-01-30T01:33:26.990Z,33.03
2023-01-30T01:35:59.928Z,22.90
2023-01-30T01:38:32.606Z,18.63
2023-01-30T01:41:06.624Z,19.25
2023-01-30T01:43:59.309Z,22.88
2023-01-30T01:46:40.562Z,26.67
2023-01-30T01:49:19.669Z,26.40
2023-01-30T01:51:52.553Z,25.45
2023-01-30T01:54:29.143Z,21.73
2023-01-30T01:57:03.875Z,25.67
2023-01-30T01:59:39.930Z,32.85
2023-01-30T02:02:14.887Z,26.20
2023-01-30T02:05:05.694Z,29.50
2023-01-30T02:07:45.058Z,28.70
2023-01-30T02:10:20.232Z,34.78
2023-01-30T02:12:53.227Z,24.08
2023-01-30T02:15:27.499Z,27.63
2023-01-30T02:18:00.975Z,24.45
2023-01-30T02:20:54.197Z,28.33
2023-01-30T02:23:36.108Z,32.30
2023-01-30T02:26:22.300Z,24.48
2023-01-30T02:29:01.486Z,19.15
2023-01-30T02:31:41.361Z,23.30
2023-01-30T02:34:20.601Z,26.33
2023-01-30T02:36:56.096Z,32.72
2023-01-30T02:39:29.011Z,24.73
2023-01-30T02:42:20.514Z,29.20
2023-01-30T02:45:07.319Z,22.73
2023-01-30T02:47:45.576Z,24.38
2023-01-30T02:50:21.322Z,25.67
2023-01-30T02:52:53.973Z,24.92
2023-01-30T02:55:28.737Z,20.25
2023-01-30T02:58:03.476Z,19.80
2023-01-30T03:00:54.591Z,22.63
2023-01-30T03:03:36.667Z,46.05
2023-01-30T03:06:11.231Z,34.75
2023-01-30T03:09:02.469Z,22.13
2023-01-30T03:11:44.938Z,18.00
2023-01-30T03:14:17.539Z,20.60
2023-01-30T03:16:53.058Z,18.75
2023-01-30T03:19:28.645Z,21.05
2023-01-30T03:22:01.606Z,23.83
2023-01-30T03:24:34.270Z,21.52
2023-01-30T03:27:09.263Z,13.88
2023-01-30T03:29:42.575Z,18.65
2023-01-30T03:32:15.467Z,16.15
2023-01-30T03:34:48.452Z,14.88
2023-01-30T03:37:21.424Z,22.88
2023-01-30T03:39:54.400Z,22.60
2023-01-30T03:42:27.619Z,21.60
2023-01-30T03:45:00.278Z,18.35
2023-01-30T03:47:35.826Z,18.73
2023-01-30T03:50:08.999Z,22.90
2023-01-30T03:52:42.087Z,16.02
2023-01-30T03:55:18.013Z,21.42
2023-01-30T03:57:55.112Z,22.17
2023-01-30T04:00:27.796Z,33.88
2023-01-30T04:03:01.096Z,38.33
2023-01-30T04:05:39.186Z,17.58
2023-01-30T04:08:14.305Z,25.20
2023-01-30T04:10:47.386Z,22.75
2023-01-30T04:13:20.389Z,20.75
2023-01-30T04:15:53.044Z,14.80
2023-01-30T04:18:55.316Z,19.00
2023-01-30T04:21:30.608Z,20.58
2023-01-30T04:24:08.355Z,16.77
2023-01-30T04:26:41.563Z,25.20
2023-01-30T04:29:14.647Z,20.50
2023-01-30T04:31:48.503Z,21.23
2023-01-30T04:34:25.692Z,21.35
2023-01-30T04:36:59.293Z,25.77
2023-01-30T04:39:37.047Z,26.58
2023-01-30T04:42:10.810Z,22.20
2023-01-30T04:44:54.466Z,21.67
2023-01-30T04:47:34.649Z,21.77
2023-01-30T04:50:11.217Z,26.55
2023-01-30T04:52:44.025Z,29.13
2023-01-30T04:55:18.293Z,16.55
2023-01-30T04:57:51.529Z,28.17
2023-01-30T05:00:31.490Z,17.27
2023-01-30T05:03:10.087Z,25.45
2023-01-30T05:05:43.355Z,22.92
2023-01-30T05:08:16.499Z,25.15
2023-01-30T05:10:49.660Z,13.13
2023-01-30T05:13:22.290Z,16.35
2023-01-30T05:15:55.317Z,18.45
2023-01-30T05:18:27.824Z,18.33
2023-01-30T05:21:07.994Z,22.02
2023-01-30T05:23:40.965Z,14.93
2023-01-30T05:26:14.329Z,16.50
2023-01-30T05:28:51.503Z,21.15
2023-01-30T05:31:24.623Z,16.33
2023-01-30T05:33:57.211Z,23.13
2023-01-30T05:36:30.097Z,26.38
2023-01-30T05:39:02.646Z,17.30
2023-01-30T05:41:35.530Z,17.85
2023-01-30T05:44:08.155Z,16.90
2023-01-30T05:46:41.198Z,17.85
2023-01-30T05:49:13.710Z,29.25
2023-01-30T05:51:46.761Z,15.63
2023-01-30T05:54:19.315Z,21.10
2023-01-30T05:56:52.263Z,24.00
2023-01-30T05:59:24.859Z,23.10
2023-01-30T06:01:57.711Z,30.42
2023-01-30T06:04:30.271Z,13.55
2023-01-30T06:07:03.323Z,17.60
2023-01-30T06:09:35.861Z,20.42
2023-01-30T06:12:09.267Z,35.67
2023-01-30T06:14:41.827Z,30.23
2023-01-30T06:17:14.848Z,20.30
2023-01-30T06:19:47.557Z,17.38
2023-01-30T06:22:20.522Z,24.80
2023-01-30T06:24:53.076Z,13.35
2023-01-30T06:27:26.029Z,18.50
2023-01-30T06:29:58.588Z,21.73
2023-01-30T06:32:31.624Z,15.70
2023-01-30T06:35:04.353Z,21.25
2023-01-30T06:37:37.184Z,16.20
2023-01-30T06:40:10.183Z,14.45
2023-01-30T06:42:46.878Z,28.02
2023-01-30T06:45:20.174Z,27.35
2023-01-30T06:47:54.490Z,31.40
2023-01-30T06:50:27.957Z,19.73
2023-01-30T06:53:02.770Z,21.65
2023-01-30T06:55:36.096Z,17.02
2023-01-30T06:58:10.178Z,16.80
2023-01-30T07:00:43.153Z,15.98
2023-01-30T07:03:17.585Z,12.45
2023-01-30T07:05:50.532Z,20.08
2023-01-30T07:08:24.444Z,12.15
2023-01-30T07:10:56.999Z,18.02
2023-01-30T07:13:29.786Z,23.27
2023-01-30T07:16:02.367Z,9.85
2023-01-30T07:18:35.204Z,23.30
2023-01-30T07:21:07.834Z,11.50
2023-01-30T07:23:40.717Z,13.07
2023-01-30T07:26:13.216Z,9.70
2023-01-30T07:28:46.337Z,12.80
2023-01-30T07:31:18.991Z,14.82
2023-01-30T07:33:51.890Z,14.80
2023-01-30T07:36:24.406Z,9.52
2023-01-30T07:38:57.291Z,5.45
2023-01-30T07:41:29.892Z,9.90
2023-01-30T07:44:03.176Z,5.97
2023-01-30T07:46:35.942Z,8.50
2023-01-30T07:49:09.781Z,7.07
2023-01-30T07:51:42.238Z,9.40
2023-01-30T07:54:15.287Z,5.40
2023-01-30T07:56:47.854Z,9.95
2023-01-30T07:59:21.064Z,42.20
2023-01-30T08:01:53.856Z,13.02
2023-01-30T08:04:26.973Z,13.15
2023-01-30T08:06:59.552Z,11.68
2023-01-30T08:09:32.522Z,9.20
2023-01-30T08:12:05.196Z,10.98
2023-01-30T08:14:38.075Z,10.35
2023-01-30T08:17:10.811Z,9.05
2023-01-30T08:19:44.368Z,12.45
2023-01-30T08:22:17.110Z,10.30
2023-01-30T08:24:50.152Z,11.13
2023-01-30T08:27:22.677Z,6.32
2023-01-30T08:29:55.642Z,9.25
2023-01-30T08:32:28.189Z,7.45
2023-01-30T08:35:01.040Z,8.85
2023-01-30T08:37:33.688Z,8.73
2023-01-30T08:40:07.392Z,13.27
2023-01-30T08:42:39.951Z,14.32
2023-01-30T08:45:13.011Z,11.40
2023-01-30T08:47:45.545Z,13.88
2023-01-30T08:50:18.957Z,14.00
2023-01-30T08:52:51.645Z,14.27
2023-01-30T08:55:25.211Z,6.55
2023-01-30T08:57:57.874Z,12.45
2023-01-30T09:00:30.775Z,9.63
2023-01-30T09:03:03.530Z,9.35
2023-01-30T09:05:36.582Z,12.10
2023-01-30T09:08:09.113Z,12.10
2023-01-30T09:10:42.168Z,10.88
2023-01-30T09:13:22.725Z,10.23
2023-01-30T09:15:59.514Z,7.70
2023-01-30T09:18:32.050Z,11.05
2023-01-30T09:21:05.745Z,5.22
2023-01-30T09:23:39.312Z,9.27
2023-01-30T09:26:12.321Z,11.48
2023-01-30T09:28:45.165Z,39.95
2023-01-30T09:31:18.233Z,12.73
2023-01-30T09:33:51.071Z,11.48
2023-01-30T09:36:24.001Z,12.05
2023-01-30T09:38:56.602Z,18.45
2023-01-30T09:41:43.044Z,9.77
2023-01-30T09:44:31.405Z,14.40
2023-01-30T09:47:07.316Z,13.50
2023-01-30T09:49:49.046Z,14.50
2023-01-30T09:52:34.704Z,10.10
2023-01-30T09:55:18.631Z,16.98
2023-01-30T09:57:52.153Z,7.03
2023-01-30T10:00:43.526Z,17.48
2023-01-30T10:03:20.516Z,10.57
2023-01-30T10:05:54.782Z,12.65
2023-01-30T10:08:39.707Z,12.32
2023-01-30T10:11:18.989Z,12.50
2023-01-30T10:14:01.054Z,10.52
2023-01-30T10:19:29.894Z,13.55
2023-01-30T10:22:24.239Z,11.25
2023-01-30T10:25:06.253Z,15.30
2023-01-30T10:27:45.145Z,10.10
2023-01-30T10:30:18.375Z,9.85
2023-01-30T10:32:56.219Z,13.13
2023-01-30T10:35:34.883Z,7.32
2023-01-30T10:38:16.418Z,11.68
2023-01-30T10:43:31.997Z,11.23
2023-01-30T10:46:12.592Z,14.93
2023-01-30T10:48:57.311Z,9.90
2023-01-30T10:51:30.780Z,8.63
2023-01-30T10:54:13.775Z,12.68
2023-01-30T10:57:02.310Z,8.02
2023-01-30T10:59:54.852Z,6.85
2023-01-30T11:02:46.583Z,9.55
2023-01-30T11:05:21.730Z,10.55
2023-01-30T11:07:54.560Z,11.02
2023-01-30T11:10:28.349Z,18.55
2023-01-30T11:13:10.934Z,12.68
2023-01-30T11:15:45.226Z,36.47
2023-01-30T11:21:15.895Z,15.35
2023-01-30T11:23:48.991Z,17.40
2023-01-30T11:26:46.446Z,4.10
2023-01-30T11:29:28.173Z,7.68
2023-01-30T11:32:05.096Z,8.95
2023-01-30T11:34:38.804Z,9.05
2023-01-30T11:37:26.064Z,5.85
2023-01-30T11:39:59.214Z,5.55
2023-01-30T11:42:44.077Z,5.50
2023-01-30T11:45:21.419Z,6.38
2023-01-30T11:48:05.406Z,6.43
2023-01-30T11:50:43.853Z,9.88
2023-01-30T11:53:26.544Z,6.20
2023-01-30T11:56:05.704Z,5.10
2023-01-30T11:58:41.174Z,6.25
2023-01-30T12:01:15.280Z,7.68
2023-01-30T12:03:49.496Z,7.43
2023-01-30T12:06:23.872Z,5.35
2023-01-30T12:08:56.410Z,2.95
2023-01-30T12:11:30.805Z,5.72
2023-01-30T12:14:09.229Z,5.80
2023-01-30T12:16:47.067Z,8.50
2023-01-30T12:19:31.867Z,5.82
2023-01-30T12:22:07.998Z,7.45
2023-01-30T12:24:43.295Z,6.63
2023-01-30T12:27:35.135Z,3.03
2023-01-30T12:30:10.598Z,5.22
2023-01-30T12:32:44.632Z,3.03
2023-01-30T12:35:18.331Z,8.52
2023-01-30T12:37:51.344Z,7.82
2023-01-30T12:40:24.276Z,6.78
2023-01-30T12:43:20.939Z,8.43
2023-01-30T12:46:09.916Z,13.40
2023-01-30T12:48:48.276Z,6.20
2023-01-30T12:51:40.071Z,25.33
2023-01-30T12:54:21.788Z,37.55
2023-01-30T12:56:54.249Z,26.48
2023-01-30T12:59:33.475Z,12.93
2023-01-30T13:02:21.102Z,5.15
2023-01-30T13:05:02.088Z,5.50
2023-01-30T13:07:42.912Z,4.50
2023-01-30T13:10:34.663Z,6.90
2023-01-30T13:13:11.049Z,2.90
2023-01-30T13:15:44.041Z,8.18
2023-01-30T13:18:25.726Z,5.15
2023-01-30T13:21:01.550Z,3.50
2023-01-30T13:23:34.510Z,7.70
2023-01-30T13:26:09.619Z,6.22
2023-01-30T13:28:53.341Z,8.52
2023-01-30T13:31:28.494Z,6.07
2023-01-30T13:34:04.215Z,8.10
2023-01-30T13:36:47.583Z,14.25
2023-01-30T13:39:27.831Z,10.32
2023-01-30T13:42:02.284Z,5.15
2023-01-30T13:44:39.365Z,13.98
2023-01-30T13:47:32.454Z,6.07
2023-01-30T13:50:18.659Z,8.93
2023-01-30T13:53:00.673Z,8.70
2023-01-30T13:55:52.739Z,6.47
2023-01-30T13:58:25.658Z,6.40
2023-01-30T14:00:58.465Z,4.13
2023-01-30T14:03:34.709Z,3.60
2023-01-30T14:06:07.330Z,7.07
2023-01-30T14:08:40.320Z,7.70
2023-01-30T14:11:34.000Z,2.53
2023-01-30T14:14:16.217Z,5.68
2023-01-30T14:19:24.840Z,11.15
2023-01-30T14:21:58.112Z,7.13
2023-01-30T14:24:32.665Z,8.90
2023-01-30T14:27:22.132Z,3.10
2023-01-30T14:29:55.872Z,5.45
2023-01-30T14:32:38.822Z,10.35
2023-01-30T14:35:14.400Z,3.15
2023-01-30T14:37:47.732Z,23.65
2023-01-30T14:40:23.955Z,28.85
2023-01-30T14:43:20.959Z,15.25
2023-01-30T14:46:08.601Z,23.58
2023-01-30T14:48:53.536Z,16.08
2023-01-30T14:51:31.670Z,14.10
2023-01-30T14:54:08.124Z,25.63
2023-01-30T14:56:47.107Z,13.77
2023-01-30T14:59:22.592Z,9.30
2023-01-30T15:02:07.753Z,19.60
2023-01-30T15:04:40.349Z,10.70
2023-01-30T15:07:28.799Z,10.55
2023-01-30T15:10:22.466Z,7.50
2023-01-30T15:12:55.301Z,10.13
2023-01-30T15:15:30.643Z,6.20
2023-01-30T15:18:08.379Z,5.10
2023-01-30T15:20:47.046Z,6.32
2023-01-30T15:23:52.533Z,4.72
2023-01-30T15:26:36.382Z,7.78
2023-01-30T15:29:09.386Z,10.88
2023-01-30T15:31:53.602Z,18.67
2023-01-30T15:34:30.049Z,13.52
2023-01-30T15:37:02.543Z,6.90
2023-01-30T15:39:35.428Z,10.25
2023-01-30T15:42:08.413Z,6.50
2023-01-30T15:45:04.106Z,4.68
2023-01-30T15:47:37.289Z,16.35
2023-01-30T15:50:12.311Z,23.45
2023-01-30T15:52:47.469Z,12.32
2023-01-30T15:55:22.928Z,8.32
2023-01-30T15:57:58.090Z,7.40
2023-01-30T16:00:36.579Z,17.33
2023-01-30T16:03:11.855Z,8.20
2023-01-30T16:05:49.363Z,2.80
2023-01-30T16:08:31.871Z,7.07
2023-01-30T16:11:05.004Z,7.90
2023-01-30T16:13:39.878Z,8.80
2023-01-30T16:16:19.611Z,5.47
2023-01-30T16:18:54.730Z,8.32
2023-01-30T16:21:35.516Z,11.45
2023-01-30T16:24:21.575Z,7.57
2023-01-30T16:26:58.171Z,9.90
2023-01-30T16:29:33.855Z,4.22
2023-01-30T16:32:13.183Z,4.47
2023-01-30T16:34:47.604Z,4.78
2023-01-30T16:37:26.563Z,3.55
2023-01-30T16:40:04.263Z,5.15
2023-01-30T16:42:37.604Z,5.50
2023-01-30T16:45:30.013Z,12.25
2023-01-30T16:48:27.477Z,3.65
2023-01-30T16:51:00.292Z,5.13
2023-01-30T16:53:33.714Z,4.68
2023-01-30T16:56:17.284Z,5.53
2023-01-30T16:58:51.863Z,9.30
2023-01-30T17:01:34.027Z,18.58
2023-01-30T17:04:08.597Z,6.85
2023-01-30T17:06:43.286Z,4.15
2023-01-30T17:09:34.564Z,5.82
2023-01-30T17:12:25.533Z,19.60
2023-01-30T17:15:12.068Z,18.25
2023-01-30T17:17:46.266Z,20.92
2023-01-30T17:20:19.297Z,6.93
2023-01-30T17:22:53.610Z,7.68
2023-01-30T17:25:27.024Z,15.07
2023-01-30T17:27:59.889Z,29.15
2023-01-30T17:30:32.796Z,31.83
2023-01-30T17:33:05.340Z,30.63
2023-01-30T17:35:38.586Z,16.45
2023-01-30T17:38:11.813Z,23.10
2023-01-30T17:40:44.829Z,23.88
2023-01-30T17:43:17.347Z,18.65
2023-01-30T17:45:50.305Z,9.13
2023-01-30T17:48:23.263Z,26.23
2023-01-30T17:50:56.197Z,21.92
2023-01-30T17:53:28.791Z,18.00
2023-01-30T17:56:01.726Z,11.57
2023-01-30T17:58:34.279Z,18.50
2023-01-30T18:01:07.126Z,18.50
2023-01-30T18:03:39.680Z,22.33
2023-01-30T18:06:16.239Z,16.25
2023-01-30T18:08:48.756Z,21.38
2023-01-30T18:11:22.654Z,15.20
2023-01-30T18:13:55.881Z,41.75
2023-01-30T18:16:33.372Z,24.67
2023-01-30T18:19:07.468Z,7.72
2023-01-30T18:21:40.642Z,12.77
2023-01-30T18:24:13.862Z,17.55
2023-01-30T18:26:47.236Z,12.15
2023-01-30T18:29:19.803Z,6.53
2023-01-30T18:31:52.950Z,23.83
2023-01-30T18:34:25.525Z,13.65
2023-01-30T18:36:58.641Z,15.90
2023-01-30T18:39:32.410Z,15.88
2023-01-30T18:42:05.582Z,11.50
2023-01-30T18:44:38.331Z,13.40
2023-01-30T18:47:11.150Z,20.75
2023-01-30T18:49:43.886Z,16.00
2023-01-30T18:52:16.812Z,23.25
2023-01-30T18:54:50.595Z,12.27
2023-01-30T18:57:23.558Z,29.33
2023-01-30T18:59:56.123Z,17.48
2023-01-30T19:02:29.074Z,19.83
2023-01-30T19:05:01.699Z,12.68
2023-01-30T19:07:35.652Z,16.70
2023-01-30T19:10:08.495Z,17.70
2023-01-30T19:13:01.239Z,16.55
2023-01-30T19:15:35.354Z,10.80
2023-01-30T19:18:08.544Z,15.63
2023-01-30T19:20:41.203Z,12.15
2023-01-30T19:23:14.116Z,11.75
2023-01-30T19:25:53.091Z,15.27
2023-01-30T19:28:25.964Z,8.45
2023-01-30T19:30:58.757Z,16.75
2023-01-30T19:33:31.751Z,15.55
2023-01-30T19:36:15.510Z,14.50
2023-01-30T19:38:48.970Z,13.10
2023-01-30T19:41:26.424Z,6.72
2023-01-30T19:44:00.107Z,20.05
2023-01-30T19:46:33.050Z,28.60
2023-01-30T19:49:06.061Z,36.38
2023-01-30T19:51:38.573Z,45.38
2023-01-30T19:54:12.361Z,62.33
2023-01-30T19:56:48.589Z,44.88
2023-01-30T19:59:22.607Z,37.60
2023-01-30T20:01:55.082Z,105.45
2023-01-30T20:04:28.642Z,113.53
2023-01-30T20:07:01.149Z,28.70
2023-01-30T20:09:34.278Z,25.50
2023-01-30T20:12:07.183Z,83.45
2023-01-30T20:14:40.027Z,41.92
2023-01-30T20:17:14.540Z,90.47
2023-01-30T20:19:47.611Z,31.00
2023-01-30T20:22:23.845Z,50.28
2023-01-30T20:24:57.461Z,43.30
2023-01-30T20:27:29.986Z,20.58
2023-01-30T20:30:03.584Z,23.98
2023-01-30T20:32:36.953Z,24.33
2023-01-30T20:35:10.016Z,23.55
2023-01-30T20:37:42.496Z,21.83
2023-01-30T20:40:15.727Z,30.75
2023-01-30T20:42:49.118Z,9.05
2023-01-30T20:45:21.935Z,13.73
2023-01-30T20:47:54.535Z,14.63
2023-01-30T20:50:27.931Z,4.97
2023-01-30T20:53:00.426Z,8.57
2023-01-30T20:55:34.227Z,10.57
2023-01-30T20:58:06.835Z,4.03
2023-01-30T21:00:39.962Z,9.05
2023-01-30T21:03:13.821Z,3.83
2023-01-30T21:05:55.708Z,7.28
2023-01-30T21:08:28.432Z,4.05
2023-01-30T21:11:09.102Z,7.70
2023-01-30T21:13:42.032Z,3.88
2023-01-30T21:16:17.815Z,5.78
2023-01-30T21:18:51.631Z,8.80
2023-01-30T21:21:29.998Z,15.45
2023-01-30T21:24:04.942Z,6.05
2023-01-30T21:26:39.382Z,5.22
2023-01-30T21:29:12.946Z,12.15
2023-01-30T21:31:46.461Z,6.32
2023-01-30T21:34:19.328Z,3.05
2023-01-30T21:37:10.571Z,7.50
2023-01-30T21:40:01.407Z,4.97
2023-01-30T21:42:53.105Z,4.60
2023-01-30T21:45:25.603Z,1.67
2023-01-30T21:47:58.581Z,3.72
2023-01-30T21:50:31.348Z,6.07
2023-01-30T21:53:04.210Z,3.85
2023-01-30T21:55:36.756Z,4.45
2023-01-30T21:58:09.634Z,11.77
2023-01-30T22:00:42.184Z,8.55
2023-01-30T22:03:15.498Z,4.38
2023-01-30T22:05:48.067Z,3.53
2023-01-30T22:08:20.930Z,10.20
2023-01-30T22:11:04.206Z,10.80
2023-01-30T22:13:37.845Z,1.80
2023-01-30T22:16:11.838Z,4.28
2023-01-30T22:18:45.695Z,4.72
2023-01-30T22:21:19.861Z,5.68
2023-01-30T22:23:53.313Z,4.30
2023-01-30T22:26:26.394Z,4.57
2023-01-30T22:29:00.121Z,2.33
2023-01-30T22:31:36.561Z,3.50
2023-01-30T22:34:09.843Z,2.47
2023-01-30T22:36:42.331Z,11.05
2023-01-30T22:39:15.235Z,13.40
2023-01-30T22:41:47.775Z,5.22
2023-01-30T22:44:20.635Z,10.35
2023-01-30T22:46:53.307Z,7.13
2023-01-30T22:49:26.589Z,3.55
2023-01-30T22:51:59.268Z,4.55
2023-01-30T22:54:32.159Z,6.60
2023-01-30T22:57:04.629Z,5.75
2023-01-30T22:59:38.153Z,12.88
2023-01-30T23:02:10.864Z,3.78
2023-01-30T23:04:43.763Z,2.47
2023-01-30T23:07:18.070Z,3.33
2023-01-30T23:09:51.030Z,3.35
2023-01-30T23:12:41.778Z,2.97
2023-01-30T23:15:14.677Z,5.60
2023-01-30T23:18:05.773Z,3.17
2023-01-30T23:20:39.057Z,4.43
2023-01-30T23:23:11.606Z,9.23
2023-01-30T23:25:45.026Z,7.18
2023-01-30T23:28:17.639Z,6.63
2023-01-30T23:30:50.559Z,5.03
2023-01-30T23:33:23.167Z,5.10
2023-01-30T23:35:56.623Z,3.92
2023-01-30T23:38:29.161Z,9.35
2023-01-30T23:41:10.222Z,4.45
2023-01-30T23:43:43.667Z,14.15
2023-01-30T23:46:24.020Z,4.25
2023-01-30T23:49:00.910Z,4.05
2023-01-30T23:51:35.487Z,1.23
2023-01-30T23:54:08.497Z,2.70
2023-01-30T23:56:42.697Z,3.15
2023-01-30T23:59:15.301Z,3.50
